Time;durP1;ratioP1;P1;durP2;ratioP2;P2;SDS_P1;SDS_P2;PMS_P1;PMS_P2;Temp;Humidity;BMP_temperature;BMP_pressure;BME280_temperature;BME280_humidity;BME280_pressure;Samples;Min_cycle;Max_cycle;Signal;HPM_P1;HPM_P2
2021/06/18 00:00:42;;;;;;;2.67;2.45;;;16.00;99.90;;;;;;5014866;28;20149;-67
2021/06/18 00:03:09;;;;;;;3.83;3.25;;;16.00;99.90;;;;;;5017321;28;20088;-69
2021/06/18 00:05:36;;;;;;;4.32;2.63;;;16.00;99.90;;;;;;5014398;28;20628;-69
2021/06/18 00:08:03;;;;;;;4.38;2.78;;;16.00;99.90;;;;;;5011466;28;20060;-67
2021/06/18 00:10:30;;;;;;;5.05;3.47;;;16.00;99.90;;;;;;5011438;28;20128;-67
2021/06/18 00:12:57;;;;;;;2.90;2.30;;;16.00;99.90;;;;;;5012727;28;20675;-68
2021/06/18 00:15:24;;;;;;;2.58;1.85;;;16.10;99.90;;;;;;5014374;28;20435;-69
2021/06/18 00:17:52;;;;;;;4.13;2.40;;;16.10;99.90;;;;;;5013265;28;20464;-68
2021/06/18 00:20:18;;;;;;;2.85;2.45;;;16.10;99.90;;;;;;5014802;28;20199;-68
2021/06/18 00:22:46;;;;;;;6.88;4.07;;;16.10;99.90;;;;;;5011002;28;20380;-67
2021/06/18 00:25:13;;;;;;;2.95;2.65;;;16.10;99.90;;;;;;5014462;28;20127;-68
2021/06/18 00:27:41;;;;;;;3.03;2.40;;;16.10;99.90;;;;;;5013807;28;20488;-70
2021/06/18 00:30:09;;;;;;;2.35;2.03;;;16.10;99.90;;;;;;5016135;28;20207;-68
2021/06/18 00:32:37;;;;;;;6.50;3.50;;;16.10;99.90;;;;;;5012193;28;20053;-68
2021/06/18 00:35:05;;;;;;;3.75;2.08;;;16.10;99.90;;;;;;5014653;28;20561;-69
2021/06/18 00:37:33;;;;;;;6.13;2.55;;;16.10;99.90;;;;;;5014164;28;20645;-67
2021/06/18 00:40:00;;;;;;;2.55;2.35;;;16.20;99.90;;;;;;5021397;28;20041;-69
2021/06/18 00:42:27;;;;;;;2.70;2.50;;;16.20;99.90;;;;;;5018935;28;20151;-68
2021/06/18 00:44:54;;;;;;;4.30;2.33;;;16.20;99.90;;;;;;5023422;28;20053;-67
2021/06/18 00:47:23;;;;;;;2.00;1.90;;;16.30;99.90;;;;;;5022348;28;20118;-67
2021/06/18 00:49:52;;;;;;;3.92;2.38;;;16.30;99.90;;;;;;5022876;28;20041;-69
2021/06/18 00:52:20;;;;;;;5.28;2.60;;;16.30;99.90;;;;;;5020169;28;20168;-68
2021/06/18 00:54:49;;;;;;;3.15;2.53;;;16.30;99.90;;;;;;5021995;28;20053;-67
2021/06/18 00:57:17;;;;;;;4.75;2.58;;;16.30;99.90;;;;;;5022261;28;20934;-68
2021/06/18 00:59:44;;;;;;;3.33;3.03;;;16.30;99.90;;;;;;5022791;28;20045;-69
2021/06/18 01:02:11;;;;;;;5.47;2.28;;;16.40;99.90;;;;;;5023017;28;20049;-69
2021/06/18 01:04:40;;;;;;;2.83;2.53;;;16.30;99.90;;;;;;5021429;28;20436;-70
2021/06/18 01:07:16;;;;;;;3.63;2.38;;;16.40;99.90;;;;;;5021152;28;20630;-67
2021/06/18 01:10:23;;;;;;;3.00;2.35;;;16.40;99.90;;;;;;5023961;28;20179;-70
2021/06/18 01:13:12;;;;;;;5.20;3.05;;;16.40;99.90;;;;;;5016700;28;20759;-68
2021/06/18 01:15:58;;;;;;;4.33;2.17;;;16.40;99.90;;;;;;5019949;28;20136;-67
2021/06/18 01:18:35;;;;;;;2.90;2.45;;;16.40;99.90;;;;;;5021020;28;20505;-68
2021/06/18 01:21:21;;;;;;;5.72;2.63;;;16.40;99.90;;;;;;5020118;28;20570;-70
2021/06/18 01:24:07;;;;;;;2.47;2.28;;;16.50;99.90;;;;;;5022328;28;20053;-69
2021/06/18 01:27:22;;;;;;;3.50;2.78;;;16.50;99.90;;;;;;5019646;28;20088;-70
2021/06/18 01:30:04;;;;;;;3.78;3.47;;;16.50;99.90;;;;;;5021171;28;20136;-68
2021/06/18 01:32:37;;;;;;;4.38;2.50;;;16.50;99.90;;;;;;5021694;28;20099;-70
2021/06/18 01:35:07;;;;;;;2.75;2.55;;;16.50;99.90;;;;;;5019371;28;20073;-69
2021/06/18 01:37:35;;;;;;;5.50;2.60;;;16.50;99.90;;;;;;5023102;28;20540;-67
2021/06/18 01:40:09;;;;;;;2.63;2.40;;;16.50;99.90;;;;;;5019926;28;20132;-69
2021/06/18 01:42:42;;;;;;;3.08;2.33;;;16.50;99.90;;;;;;5021147;28;20232;-66
2021/06/18 01:45:13;;;;;;;4.60;2.55;;;16.50;99.90;;;;;;5021075;28;20053;-69
2021/06/18 01:47:41;;;;;;;;;;;16.60;99.90;;;;;;5018793;28;20121;-69
2021/06/18 01:50:10;;;;;;;3.47;2.50;;;16.70;99.90;;;;;;5019127;28;19986;-67
2021/06/18 01:52:41;;;;;;;4.20;2.53;;;16.70;99.90;;;;;;5015243;28;20421;-67
2021/06/18 01:55:09;;;;;;;3.65;2.60;;;16.80;99.90;;;;;;5015815;28;20114;-68
2021/06/18 01:57:37;;;;;;;2.67;2.47;;;16.80;99.90;;;;;;5017139;28;20080;-67
2021/06/18 02:00:07;;;;;;;5.30;2.70;;;16.80;99.90;;;;;;5018070;28;20049;-69
2021/06/18 02:02:38;;;;;;;2.58;2.35;;;16.80;99.90;;;;;;5016946;28;20771;-68
2021/06/18 02:05:07;;;;;;;5.65;2.78;;;16.90;99.90;;;;;;5019721;28;20060;-68
2021/06/18 02:07:36;;;;;;;3.50;3.30;;;17.00;99.90;;;;;;5017517;28;20052;-69
2021/06/18 02:10:08;;;;;;;2.67;2.17;;;17.00;99.90;;;;;;5018827;28;20053;-69
2021/06/18 02:12:37;;;;;;;5.60;3.22;;;17.00;99.90;;;;;;5016450;28;20135;-67
2021/06/18 02:15:08;;;;;;;5.93;2.72;;;17.10;99.90;;;;;;5019032;28;20124;-68
2021/06/18 02:17:38;;;;;;;2.83;2.60;;;17.00;99.90;;;;;;5014056;28;20235;-66
2021/06/18 02:20:07;;;;;;;4.53;3.17;;;17.20;99.90;;;;;;5016910;28;20383;-69
2021/06/18 02:22:36;;;;;;;4.38;2.97;;;17.20;99.90;;;;;;5011850;28;20045;-67
2021/06/18 02:25:06;;;;;;;7.97;3.08;;;17.20;99.90;;;;;;5016521;28;20076;-67
2021/06/18 02:27:34;;;;;;;7.43;3.47;;;17.20;99.90;;;;;;5014068;28;20561;-69
2021/06/18 02:30:03;;;;;;;5.40;2.70;;;17.20;99.90;;;;;;5016232;28;20097;-67
2021/06/18 02:32:32;;;;;;;3.03;2.72;;;17.30;99.90;;;;;;5016322;28;20598;-68
2021/06/18 02:35:00;;;;;;;3.75;2.88;;;17.40;99.90;;;;;;5021337;28;20052;-67
2021/06/18 02:37:26;;;;;;;2.72;2.53;;;17.40;99.90;;;;;;5017799;28;20073;-69
2021/06/18 02:39:53;;;;;;;8.52;3.90;;;17.50;99.90;;;;;;5020986;28;20136;-69
2021/06/18 02:42:20;;;;;;;3.22;2.92;;;17.50;99.90;;;;;;5017198;28;20144;-68
2021/06/18 02:44:47;;;;;;;12.15;3.30;;;17.50;99.90;;;;;;4987867;28;20108;-70
2021/06/18 02:47:26;;;;;;;4.60;3.22;;;17.50;99.90;;;;;;4994638;28;20048;-68
2021/06/18 02:50:36;;;;;;;9.52;3.88;;;17.50;99.90;;;;;;5037763;28;20139;-67
2021/06/18 02:53:15;;;;;;;5.90;3.35;;;17.60;99.90;;;;;;4989627;28;20203;-69
2021/06/18 02:55:50;;;;;;;3.40;3.10;;;17.60;99.90;;;;;;5017073;28;20053;-69
2021/06/18 02:58:30;;;;;;;8.27;3.95;;;17.50;99.90;;;;;;5018497;28;20061;-67
2021/06/18 03:01:01;;;;;;;4.82;3.45;;;17.60;99.90;;;;;;5015346;28;20045;-67
2021/06/18 03:03:40;;;;;;;4.80;3.88;;;17.70;99.90;;;;;;5017915;28;21087;-68
2021/06/18 03:06:09;;;;;;;7.32;3.58;;;17.70;99.90;;;;;;5016699;28;20472;-69
2021/06/18 03:08:42;;;;;;;4.15;3.72;;;17.80;99.90;;;;;;5016691;28;20073;-67
2021/06/18 03:11:11;;;;;;;4.82;4.32;;;17.80;99.90;;;;;;5018323;28;20072;-67
2021/06/18 03:13:41;;;;;;;5.13;4.57;;;17.80;99.90;;;;;;5018822;28;20570;-67
2021/06/18 03:16:10;;;;;;;;;;;17.80;99.90;;;;;;5020769;28;20057;-68
2021/06/18 03:18:40;;;;;;;6.00;4.60;;;17.80;99.90;;;;;;5017847;28;19933;-69
2021/06/18 03:21:08;;;;;;;;;;;17.90;99.90;;;;;;5020326;28;20529;-68
2021/06/18 03:23:36;;;;;;;6.93;5.13;;;17.90;99.90;;;;;;5017527;28;20141;-67
2021/06/18 03:26:04;;;;;;;6.03;4.82;;;17.90;99.90;;;;;;5019621;28;20077;-68
2021/06/18 03:28:33;;;;;;;5.03;4.53;;;18.00;99.90;;;;;;5015279;28;20749;-67
2021/06/18 03:31:03;;;;;;;8.38;6.53;;;18.00;99.90;;;;;;5018536;28;20104;-69
2021/06/18 03:33:31;;;;;;;8.95;5.00;;;18.10;99.90;;;;;;5017539;28;20052;-70
2021/06/18 03:35:58;;;;;;;7.40;5.25;;;18.20;99.90;;;;;;5019006;28;20899;-69
2021/06/18 03:38:26;;;;;;;7.70;5.22;;;18.30;99.90;;;;;;5015210;28;20069;-68
2021/06/18 03:40:53;;;;;;;5.72;4.88;;;18.40;99.90;;;;;;5019536;28;20049;-69
2021/06/18 03:43:20;;;;;;;7.63;5.03;;;18.40;99.90;;;;;;5018009;28;20111;-70
2021/06/18 03:45:50;;;;;;;7.13;6.10;;;18.50;99.90;;;;;;5018663;28;20136;-70
2021/06/18 03:48:19;;;;;;;8.32;5.65;;;18.50;99.90;;;;;;5017224;28;20063;-68
2021/06/18 03:50:46;;;;;;;6.63;6.03;;;18.60;99.90;;;;;;5016805;28;20253;-67
2021/06/18 03:53:16;;;;;;;6.97;5.95;;;18.60;99.90;;;;;;5014853;28;20123;-70
2021/06/18 03:55:47;;;;;;;10.35;6.05;;;18.60;99.90;;;;;;5018911;28;20056;-68
2021/06/18 03:58:20;;;;;;;7.75;5.72;;;18.70;99.90;;;;;;5016606;28;20040;-69
2021/06/18 04:00:50;;;;;;;6.78;6.18;;;18.80;99.90;;;;;;5015125;28;20487;-67
2021/06/18 04:03:20;;;;;;;7.30;6.57;;;19.00;99.90;;;;;;5015261;28;20057;-68
2021/06/18 04:05:49;;;;;;;;;;;19.00;99.90;;;;;;5018368;28;20049;-67
2021/06/18 04:08:18;;;;;;;7.70;6.07;;;19.10;99.90;;;;;;5015791;28;19920;-68
2021/06/18 04:10:45;;;;;;;6.90;6.15;;;19.10;99.90;;;;;;5017030;28;20496;-68
2021/06/18 04:13:13;;;;;;;6.45;5.72;;;19.20;99.90;;;;;;5016634;28;20056;-67
2021/06/18 04:15:40;;;;;;;11.15;6.53;;;19.30;99.90;;;;;;5019036;28;20073;-70
2021/06/18 04:18:08;;;;;;;8.95;6.57;;;19.40;99.90;;;;;;5016068;28;20225;-67
2021/06/18 04:20:35;;;;;;;6.40;5.72;;;19.40;99.90;;;;;;5018359;28;20785;-67
2021/06/18 04:23:03;;;;;;;6.03;5.53;;;19.50;99.90;;;;;;5016498;28;20089;-69
2021/06/18 04:25:30;;;;;;;7.63;6.90;;;19.60;99.90;;;;;;5018173;28;20046;-69
2021/06/18 04:27:59;;;;;;;6.82;6.13;;;19.70;99.90;;;;;;5014897;28;20152;-67
2021/06/18 04:30:27;;;;;;;18.35;7.30;;;19.80;99.90;;;;;;5016494;28;20096;-69
2021/06/18 04:32:54;;;;;;;6.32;5.88;;;19.80;99.90;;;;;;5015144;28;20065;-70
2021/06/18 04:35:21;;;;;;;8.25;7.07;;;20.00;99.90;;;;;;5016921;28;20057;-68
2021/06/18 04:37:48;;;;;;;6.10;5.70;;;20.00;99.90;;;;;;5015182;28;20167;-66
2021/06/18 04:40:15;;;;;;;6.82;5.68;;;20.20;99.90;;;;;;5017328;28;20088;-66
2021/06/18 04:42:42;;;;;;;9.93;6.38;;;20.20;99.90;;;;;;5013888;28;20060;-68
2021/06/18 04:45:10;;;;;;;8.82;6.70;;;20.30;99.90;;;;;;5017965;28;20128;-70
2021/06/18 04:47:37;;;;;;;6.85;6.25;;;20.40;99.90;;;;;;5015686;28;20150;-70
2021/06/18 04:50:05;;;;;;;7.82;6.75;;;20.40;99.90;;;;;;5016905;28;20084;-67
2021/06/18 04:52:33;;;;;;;9.60;7.18;;;20.50;99.90;;;;;;5013326;28;20137;-68
2021/06/18 04:55:03;;;;;;;8.23;7.53;;;20.60;99.90;;;;;;5016612;28;20053;-68
2021/06/18 04:57:30;;;;;;;10.85;7.25;;;20.80;99.90;;;;;;5015120;28;20134;-70
2021/06/18 04:59:59;;;;;;;9.65;8.23;;;20.90;99.90;;;;;;5016160;28;20119;-69
2021/06/18 05:02:26;;;;;;;9.38;8.55;;;21.10;99.90;;;;;;5009630;28;20081;-69
2021/06/18 05:04:52;;;;;;;9.38;8.45;;;21.20;99.90;;;;;;5013571;28;20133;-70
2021/06/18 05:07:19;;;;;;;10.40;9.40;;;21.40;99.90;;;;;;5014380;28;20380;-70
2021/06/18 05:09:46;;;;;;;9.50;8.60;;;21.40;99.90;;;;;;5014415;28;20077;-69
2021/06/18 05:12:13;;;;;;;9.07;8.10;;;21.50;99.90;;;;;;5015957;28;20048;-69
2021/06/18 05:14:40;;;;;;;10.30;9.35;;;21.60;99.90;;;;;;5013148;28;21726;-70
2021/06/18 05:17:07;;;;;;;10.00;7.63;;;21.70;99.90;;;;;;5011446;28;20642;-68
2021/06/18 05:19:34;;;;;;;13.73;9.95;;;21.80;99.90;;;;;;5011367;28;20049;-69
2021/06/18 05:22:02;;;;;;;9.43;8.57;;;21.90;99.90;;;;;;5016094;28;20057;-68
2021/06/18 05:24:29;;;;;;;11.55;9.45;;;22.00;99.90;;;;;;5015228;28;20512;-70
2021/06/18 05:26:56;;;;;;;8.73;7.93;;;22.10;99.90;;;;;;5020995;28;20128;-68
2021/06/18 05:29:23;;;;;;;8.57;7.93;;;22.10;99.90;;;;;;5017952;28;20077;-68
2021/06/18 05:31:52;;;;;;;12.63;11.13;;;22.20;99.90;;;;;;5019535;28;20052;-68
2021/06/18 05:34:20;;;;;;;8.68;7.88;;;22.30;99.90;;;;;;5018778;28;20197;-67
2021/06/18 05:36:47;;;;;;;8.95;8.10;;;22.40;99.90;;;;;;5016214;28;20051;-69
2021/06/18 05:39:14;;;;;;;11.27;10.10;;;22.40;99.90;;;;;;5017393;28;20077;-69
2021/06/18 05:41:42;;;;;;;10.88;8.30;;;22.60;99.90;;;;;;5019434;28;20448;-68
2021/06/18 05:44:09;;;;;;;14.35;9.90;;;22.60;99.90;;;;;;5018013;28;20506;-70
2021/06/18 05:46:36;;;;;;;10.77;8.70;;;22.70;99.90;;;;;;5016378;28;20069;-69
2021/06/18 05:49:03;;;;;;;9.57;8.77;;;22.70;99.90;;;;;;5018323;28;20045;-68
2021/06/18 05:51:30;;;;;;;10.90;9.80;;;22.80;99.90;;;;;;5018980;28;20150;-67
2021/06/18 05:53:57;;;;;;;10.63;8.48;;;22.80;99.90;;;;;;5005899;28;20077;-70
2021/06/18 05:56:24;;;;;;;9.52;7.85;;;22.90;99.90;;;;;;5008230;28;20283;-68
2021/06/18 05:58:51;;;;;;;8.30;7.53;;;23.00;99.90;;;;;;5016304;28;20870;-68
2021/06/18 06:01:18;;;;;;;9.02;7.90;;;23.10;99.90;;;;;;5017958;28;20144;-68
2021/06/18 06:04:01;;;;;;;9.63;8.73;;;23.10;99.90;;;;;;5017590;28;21571;-68
2021/06/18 06:06:30;;;;;;;11.37;9.47;;;23.20;99.90;;;;;;4323776;28;10000963;-67
2021/06/18 06:08:57;;;;;;;9.43;8.32;;;23.20;99.90;;;;;;1034859;28;10002362;-69
2021/06/18 06:11:26;;;;;;;7.57;6.85;;;23.30;99.90;;;;;;5018380;28;20155;-69
2021/06/18 06:14:03;;;;;;;13.35;8.32;;;23.30;99.90;;;;;;5014922;28;20053;-68
2021/06/18 06:16:32;;;;;;;10.13;7.85;;;23.40;99.90;;;;;;5016191;28;20152;-68
2021/06/18 06:19:00;;;;;;;10.30;7.28;;;23.40;99.90;;;;;;5017222;28;20054;-68
2021/06/18 06:21:27;;;;;;;9.02;6.93;;;23.50;99.90;;;;;;5018163;28;20170;-70
2021/06/18 06:23:54;;;;;;;10.20;8.43;;;23.50;99.90;;;;;;5017338;28;20132;-68
2021/06/18 06:26:21;;;;;;;7.18;6.40;;;23.60;99.90;;;;;;5016889;28;20174;-70
2021/06/18 06:28:48;;;;;;;7.30;6.70;;;23.70;99.90;;;;;;5018625;28;20065;-68
2021/06/18 06:31:15;;;;;;;11.00;8.20;;;23.80;99.90;;;;;;5020774;28;20057;-67
2021/06/18 06:33:43;;;;;;;8.27;7.57;;;23.80;99.90;;;;;;5018353;28;20166;-69
2021/06/18 06:36:10;;;;;;;7.53;6.88;;;23.80;99.90;;;;;;5019750;28;20052;-70
2021/06/18 06:38:37;;;;;;;7.70;6.60;;;23.90;99.90;;;;;;5017377;28;20136;-70
2021/06/18 06:41:05;;;;;;;8.77;7.93;;;23.90;99.90;;;;;;5020526;28;20046;-68
2021/06/18 06:43:32;;;;;;;9.90;7.15;;;24.00;99.90;;;;;;5018767;28;20633;-67
2021/06/18 06:46:00;;;;;;;7.70;6.88;;;24.00;99.90;;;;;;5019628;28;20494;-68
2021/06/18 06:48:27;;;;;;;7.40;6.70;;;24.10;99.90;;;;;;5017466;28;20191;-69
2021/06/18 06:50:54;;;;;;;8.35;7.65;;;24.10;99.90;;;;;;5019072;28;20515;-68
2021/06/18 06:53:21;;;;;;;7.55;6.80;;;24.10;99.90;;;;;;5019516;28;20086;-70
2021/06/18 06:55:48;;;;;;;8.55;7.10;;;24.20;99.90;;;;;;5018980;28;20078;-67
2021/06/18 06:58:16;;;;;;;7.38;6.78;;;24.30;99.90;;;;;;5034313;28;20084;-69
2021/06/18 07:00:43;;;;;;;7.50;6.90;;;24.30;99.90;;;;;;5014644;28;20045;-68
2021/06/18 07:03:09;;;;;;;7.95;5.93;;;24.40;99.90;;;;;;5014079;28;20144;-67
2021/06/18 07:05:39;;;;;;;9.52;6.90;;;24.50;99.90;;;;;;5015606;28;20709;-70
2021/06/18 07:08:31;;;;;;;8.15;6.30;;;24.50;99.90;;;;;;5014398;28;20049;-70
2021/06/18 07:10:57;;;;;;;8.02;7.22;;;24.60;99.90;;;;;;5010434;28;20062;-68
2021/06/18 07:13:25;;;;;;;7.25;6.60;;;24.60;99.90;;;;;;5014401;28;21077;-70
2021/06/18 07:15:52;;;;;;;8.07;6.43;;;24.60;99.90;;;;;;5012192;28;20049;-69
2021/06/18 07:18:20;;;;;;;8.00;6.13;;;24.70;99.90;;;;;;5011768;28;20128;-68
2021/06/18 07:20:47;;;;;;;7.57;6.88;;;24.70;99.90;;;;;;5013285;28;20397;-68
2021/06/18 07:23:14;;;;;;;8.95;7.90;;;24.70;99.90;;;;;;5014637;28;20163;-68
2021/06/18 07:25:42;;;;;;;7.28;6.55;;;24.80;99.90;;;;;;5012743;28;20077;-70
2021/06/18 07:28:10;;;;;;;8.88;6.88;;;24.80;99.90;;;;;;5014718;28;20069;-69
2021/06/18 07:30:37;;;;;;;8.65;7.85;;;24.90;99.50;;;;;;5015930;28;20073;-67
2021/06/18 07:33:05;;;;;;;8.02;7.22;;;25.00;99.30;;;;;;5013115;28;20412;-71
2021/06/18 07:35:32;;;;;;;7.63;6.60;;;25.00;99.30;;;;;;5018151;28;20130;-67
2021/06/18 07:37:59;;;;;;;8.02;7.28;;;25.10;99.20;;;;;;5015965;28;20122;-69
2021/06/18 07:40:27;;;;;;;8.02;6.63;;;25.10;99.00;;;;;;5016435;28;20060;-68
2021/06/18 07:42:54;;;;;;;7.97;6.28;;;25.20;99.20;;;;;;5018312;28;20049;-70
2021/06/18 07:45:21;;;;;;;8.70;6.88;;;25.20;98.70;;;;;;5018473;28;20543;-69
2021/06/18 07:47:48;;;;;;;8.57;7.20;;;25.30;98.70;;;;;;5013796;28;20045;-68
2021/06/18 07:50:17;;;;;;;11.77;7.82;;;25.30;98.60;;;;;;5018726;28;20136;-69
2021/06/18 07:52:45;;;;;;;7.97;7.28;;;25.40;98.60;;;;;;5014778;28;20081;-68
2021/06/18 07:55:22;;;;;;;8.57;5.95;;;25.50;98.60;;;;;;5018921;28;20625;-69
2021/06/18 07:57:51;;;;;;;8.70;7.90;;;25.60;98.30;;;;;;5016473;28;20049;-70
2021/06/18 08:00:18;;;;;;;7.38;6.68;;;25.70;97.90;;;;;;5018020;28;20540;-68
2021/06/18 08:02:46;;;;;;;9.15;6.57;;;25.80;97.90;;;;;;5014157;28;21397;-67
2021/06/18 08:05:13;;;;;;;7.13;6.43;;;25.80;98.10;;;;;;5015405;28;20053;-67
2021/06/18 08:07:42;;;;;;;7.13;6.05;;;25.80;97.70;;;;;;5013896;28;20755;-69
2021/06/18 08:10:12;;;;;;;10.02;8.35;;;25.80;97.30;;;;;;5015820;28;20123;-70
2021/06/18 08:12:41;;;;;;;8.82;7.72;;;25.90;97.40;;;;;;5011746;28;20391;-67
2021/06/18 08:15:09;;;;;;;7.22;6.03;;;26.00;97.50;;;;;;5014173;28;20080;-69
2021/06/18 08:17:36;;;;;;;7.10;6.40;;;26.00;97.30;;;;;;5013568;28;20049;-68
2021/06/18 08:20:08;;;;;;;8.00;7.30;;;26.10;96.90;;;;;;5015124;28;20049;-69
2021/06/18 08:22:36;;;;;;;7.90;6.45;;;26.20;97.00;;;;;;5011500;28;20407;-69
2021/06/18 08:25:04;;;;;;;9.45;7.65;;;26.30;97.20;;;;;;5011532;28;20041;-67
2021/06/18 08:27:31;;;;;;;7.22;6.53;;;26.40;96.70;;;;;;5012558;28;20114;-70
2021/06/18 08:29:58;;;;;;;8.60;7.80;;;26.40;96.50;;;;;;5011641;28;20091;-70
2021/06/18 08:32:46;;;;;;;6.68;6.13;;;26.40;96.20;;;;;;5013801;28;20387;-69
2021/06/18 08:35:13;;;;;;;9.18;8.25;;;26.50;96.20;;;;;;5015054;28;20049;-70
2021/06/18 08:37:40;;;;;;;8.43;6.82;;;26.60;96.20;;;;;;5014257;28;20041;-67
2021/06/18 08:40:07;;;;;;;8.20;7.40;;;26.60;96.00;;;;;;5012091;28;20126;-69
2021/06/18 08:42:34;;;;;;;7.85;7.10;;;26.80;95.70;;;;;;5014325;28;20046;-67
2021/06/18 08:45:03;;;;;;;6.65;6.15;;;26.70;95.20;;;;;;5014241;28;20080;-67
2021/06/18 08:47:30;;;;;;;10.40;7.82;;;26.80;96.00;;;;;;5017645;28;20434;-70
2021/06/18 08:49:57;;;;;;;7.95;7.13;;;26.80;95.60;;;;;;5015828;28;20041;-69
2021/06/18 08:52:24;;;;;;;9.20;6.40;;;27.00;95.50;;;;;;5016871;28;20134;-69
2021/06/18 08:54:53;;;;;;;8.38;6.53;;;27.10;95.60;;;;;;5016679;28;20461;-67
2021/06/18 08:57:22;;;;;;;7.68;6.97;;;27.30;95.20;;;;;;5018025;28;20045;-70
2021/06/18 08:59:51;;;;;;;8.20;7.47;;;27.30;94.50;;;;;;5016689;28;20049;-68
2021/06/18 09:02:18;;;;;;;7.72;6.97;;;27.30;94.00;;;;;;5022961;28;20084;-67
2021/06/18 09:05:13;;;;;;;8.30;7.45;;;27.40;94.60;;;;;;5019246;28;20146;-64
2021/06/18 09:07:59;;;;;;;7.85;7.15;;;27.50;93.70;;;;;;5021049;28;20073;-67
2021/06/18 09:10:39;;;;;;;7.80;7.10;;;27.60;93.90;;;;;;5016589;28;20158;-65
2021/06/18 09:13:30;;;;;;;6.93;6.32;;;27.50;93.70;;;;;;5018421;28;20111;-65
2021/06/18 09:15:58;;;;;;;8.18;7.38;;;27.60;93.50;;;;;;5017404;28;20111;-68
2021/06/18 09:18:36;;;;;;;6.57;5.97;;;27.70;94.10;;;;;;5016374;28;20081;-66
2021/06/18 09:21:09;;;;;;;6.97;6.38;;;27.80;93.70;;;;;;5017161;28;20199;-65
2021/06/18 09:23:39;;;;;;;8.73;6.05;;;27.90;93.70;;;;;;5019919;28;20053;-67
2021/06/18 09:26:18;;;;;;;7.82;7.10;;;28.00;93.20;;;;;;5016663;28;20049;-66
2021/06/18 09:29:02;;;;;;;12.50;7.82;;;28.00;92.60;;;;;;5015801;28;20480;-65
2021/06/18 09:31:50;;;;;;;8.70;7.65;;;28.00;92.10;;;;;;5015416;28;20627;-66
2021/06/18 09:37:19;;;;;;;8.07;7.28;;;28.10;92.80;;;;;;5018460;28;20056;-65
2021/06/18 09:40:08;;;;;;;7.80;7.05;;;28.10;92.00;;;;;;5017807;28;20045;-68
2021/06/18 09:42:45;;;;;;;8.25;7.10;;;28.10;92.10;;;;;;5017087;28;20105;-66
2021/06/18 09:45:16;;;;;;;9.70;8.80;;;28.10;92.30;;;;;;5019108;28;20048;-66
2021/06/18 09:47:44;;;;;;;8.23;7.43;;;28.20;91.90;;;;;;5019365;28;20149;-65
2021/06/18 09:50:14;;;;;;;9.23;7.72;;;28.20;91.90;;;;;;5019091;28;20141;-67
2021/06/18 09:52:42;;;;;;;11.73;6.88;;;28.20;91.20;;;;;;5017975;28;20066;-66
2021/06/18 09:55:22;;;;;;;9.95;7.35;;;28.10;91.70;;;;;;5019979;28;20049;-67
2021/06/18 09:57:55;;;;;;;7.30;6.70;;;28.20;91.50;;;;;;5018300;28;20210;-68
2021/06/18 10:00:24;;;;;;;10.35;7.47;;;28.30;91.50;;;;;;5017271;28;20476;-68
2021/06/18 10:02:53;;;;;;;7.20;6.60;;;28.40;90.70;;;;;;5020076;28;20145;-68
2021/06/18 10:05:24;;;;;;;8.63;7.88;;;28.50;91.30;;;;;;5020660;28;21802;-69
2021/06/18 10:07:53;;;;;;;11.63;7.07;;;28.50;91.00;;;;;;5019350;28;20137;-69
2021/06/18 10:10:22;;;;;;;7.70;6.53;;;28.70;91.30;;;;;;5019190;28;20150;-68
2021/06/18 10:12:50;;;;;;;8.45;7.10;;;29.00;90.50;;;;;;5015098;28;20073;-68
2021/06/18 10:15:19;;;;;;;10.90;6.53;;;29.10;89.40;;;;;;5015983;28;20088;-70
2021/06/18 10:17:47;;;;;;;7.90;7.10;;;29.10;89.50;;;;;;5016888;28;20180;-67
2021/06/18 10:20:29;;;;;;;7.72;6.80;;;29.10;89.40;;;;;;5018434;28;20052;-66
2021/06/18 10:22:56;;;;;;;7.53;6.60;;;29.20;90.00;;;;;;5013788;28;20048;-67
2021/06/18 10:25:52;;;;;;;8.27;7.57;;;29.20;88.90;;;;;;5018613;28;20481;-65
2021/06/18 10:28:30;;;;;;;7.00;6.40;;;29.10;88.10;;;;;;5014880;28;20050;-67
2021/06/18 10:31:00;;;;;;;6.88;6.18;;;29.10;89.20;;;;;;5015843;28;20136;-65
2021/06/18 10:33:27;;;;;;;8.00;7.40;;;29.00;89.00;;;;;;5015483;28;20172;-66
2021/06/18 10:36:08;;;;;;;7.25;6.28;;;29.10;88.90;;;;;;5015873;28;20045;-66
2021/06/18 10:38:43;;;;;;;8.95;8.15;;;29.10;89.50;;;;;;5012101;28;20132;-66
2021/06/18 10:41:17;;;;;;;6.90;6.40;;;29.20;87.60;;;;;;5019783;28;20057;-66
2021/06/18 10:43:46;;;;;;;9.57;7.28;;;29.30;88.30;;;;;;5015043;28;20516;-67
2021/06/18 10:46:18;;;;;;;8.43;6.55;;;29.30;88.60;;;;;;5016575;28;20059;-67
2021/06/18 10:48:52;;;;;;;29.25;9.52;;;29.30;88.40;;;;;;5016291;28;20069;-65
2021/06/18 10:51:33;;;;;;;12.55;7.03;;;29.50;87.30;;;;;;5016551;28;20041;-65
2021/06/18 10:54:30;;;;;;;7.32;6.72;;;29.50;87.50;;;;;;5017861;28;20080;-66
2021/06/18 10:56:58;;;;;;;8.15;6.90;;;29.40;87.20;;;;;;5015443;28;20431;-67
2021/06/18 10:59:31;;;;;;;7.55;6.88;;;29.50;87.10;;;;;;5019747;28;20133;-66
2021/06/18 11:02:00;;;;;;;9.88;7.30;;;29.60;85.30;;;;;;5016881;28;20111;-66
2021/06/18 11:04:55;;;;;;;9.80;6.05;;;29.60;85.60;;;;;;5017623;28;20053;-66
2021/06/18 11:07:25;;;;;;;6.65;5.97;;;29.50;85.40;;;;;;5015772;28;20724;-67
2021/06/18 11:09:59;;;;;;;;;;;29.40;84.20;;;;;;5021345;28;20180;-66
2021/06/18 11:12:27;;;;;;;6.93;6.25;;;29.50;83.80;;;;;;5015407;28;21430;-66
2021/06/18 11:14:59;;;;;;;6.40;5.60;;;29.60;83.80;;;;;;5018056;28;20809;-66
2021/06/18 11:17:45;;;;;;;7.05;5.85;;;29.70;83.30;;;;;;5015196;28;20163;-68
2021/06/18 11:20:16;;;;;;;7.00;6.43;;;29.80;83.40;;;;;;5019029;28;20780;-66
2021/06/18 11:22:54;;;;;;;8.18;7.35;;;29.80;82.70;;;;;;5013349;28;20160;-65
2021/06/18 11:25:43;;;;;;;9.27;8.48;;;29.90;84.50;;;;;;5015407;28;21670;-66
2021/06/18 11:28:22;;;;;;;8.40;7.60;;;29.70;83.70;;;;;;5015736;28;20170;-65
2021/06/18 11:30:58;;;;;;;8.52;7.75;;;29.70;83.00;;;;;;5015561;28;20724;-66
2021/06/18 11:36:32;;;;;;;8.75;8.07;;;29.70;83.90;;;;;;5017081;28;20056;-66
2021/06/18 11:39:10;;;;;;;9.18;7.40;;;29.70;83.80;;;;;;5014720;28;20049;-66
2021/06/18 11:41:40;;;;;;;7.28;6.68;;;29.90;83.10;;;;;;5012785;28;20041;-66
2021/06/18 11:44:09;;;;;;;8.95;8.00;;;30.10;84.10;;;;;;5016529;28;20041;-66
2021/06/18 11:46:37;;;;;;;8.25;7.57;;;30.30;82.80;;;;;;5015902;28;20072;-67
2021/06/18 11:49:10;;;;;;;8.30;7.60;;;30.30;82.60;;;;;;5014744;28;20053;-69
2021/06/18 11:51:38;;;;;;;8.32;7.47;;;30.40;81.70;;;;;;5017115;28;20481;-67
2021/06/18 11:54:06;;;;;;;8.40;7.30;;;30.40;81.90;;;;;;5015868;28;20059;-69
2021/06/18 11:56:35;;;;;;;9.77;8.18;;;30.40;81.50;;;;;;5015647;28;20131;-67
2021/06/18 11:59:12;;;;;;;7.07;6.47;;;30.30;81.20;;;;;;5016906;28;20251;-65
2021/06/18 12:01:39;;;;;;;8.20;6.57;;;30.20;81.50;;;;;;5016144;28;20150;-66
2021/06/18 12:04:14;;;;;;;11.25;10.15;;;30.20;81.60;;;;;;5017237;28;20991;-67
2021/06/18 12:06:42;;;;;;;6.90;6.28;;;30.30;81.50;;;;;;5013127;28;20127;-67
2021/06/18 12:09:15;;;;;;;8.52;7.82;;;30.40;81.60;;;;;;5017170;28;20148;-65
2021/06/18 12:11:42;;;;;;;7.95;7.28;;;30.30;81.20;;;;;;5017292;28;20073;-69
2021/06/18 12:14:11;;;;;;;9.45;8.63;;;30.20;81.60;;;;;;5018418;28;20656;-66
2021/06/18 12:16:43;;;;;;;12.07;7.53;;;30.20;80.20;;;;;;5015307;28;20119;-68
2021/06/18 12:19:30;;;;;;;7.03;6.28;;;30.10;80.90;;;;;;5018045;28;20443;-66
2021/06/18 12:22:10;;;;;;;7.97;7.25;;;30.20;81.50;;;;;;5014647;28;20057;-66
2021/06/18 12:24:39;;;;;;;8.93;6.75;;;30.40;81.80;;;;;;5014069;28;20119;-69
2021/06/18 12:27:14;;;;;;;8.65;7.70;;;30.70;83.90;;;;;;5014306;28;20049;-67
2021/06/18 12:29:52;;;;;;;8.27;6.35;;;30.80;80.30;;;;;;5014836;28;20057;-66
2021/06/18 12:32:21;;;;;;;7.82;7.18;;;30.90;80.10;;;;;;5015610;28;20125;-69
2021/06/18 12:34:50;;;;;;;8.10;7.13;;;30.90;79.60;;;;;;5013546;28;20806;-69
2021/06/18 12:37:20;;;;;;;7.43;6.90;;;30.90;79.90;;;;;;5014034;28;20045;-68
2021/06/18 12:39:55;;;;;;;7.05;6.55;;;31.10;80.60;;;;;;5014854;28;20536;-67
2021/06/18 12:42:25;;;;;;;8.80;8.10;;;31.30;79.20;;;;;;5013394;28;20068;-67
2021/06/18 12:45:12;;;;;;;7.43;6.82;;;31.30;78.60;;;;;;5012088;28;20053;-67
2021/06/18 12:47:45;;;;;;;8.88;7.38;;;31.30;79.20;;;;;;5015424;28;20057;-69
2021/06/18 12:50:22;;;;;;;7.63;7.00;;;31.40;78.70;;;;;;5015724;28;20842;-66
2021/06/18 12:52:51;;;;;;;11.00;7.70;;;31.40;78.00;;;;;;5013351;28;20163;-69
2021/06/18 12:55:45;;;;;;;8.18;6.82;;;31.30;78.20;;;;;;5013451;28;20041;-66
2021/06/18 12:58:14;;;;;;;7.10;6.50;;;31.20;77.90;;;;;;5016730;28;20038;-68
2021/06/18 13:00:46;;;;;;;7.88;7.18;;;31.10;78.30;;;;;;5013797;28;20041;-69
2021/06/18 13:03:42;;;;;;;8.07;7.25;;;31.20;78.50;;;;;;5016741;28;20048;-66
2021/06/18 13:06:11;;;;;;;9.07;7.22;;;31.30;77.60;;;;;;5015734;28;20510;-70
2021/06/18 13:08:46;;;;;;;7.33;6.73;;;31.30;76.70;;;;;;5015336;28;20115;-67
2021/06/18 13:11:32;;;;;;;8.70;7.78;;;31.30;77.20;;;;;;5015159;28;20682;-67